Time;durP1;ratioP1;P1;durP2;ratioP2;P2;SDS_P1;SDS_P2;PMS_P1;PMS_P2;Temp;Humidity;BMP_temperature;BMP_pressure;BME280_temperature;BME280_humidity;BME280_pressure;Samples;Min_cycle;Max_cycle;Signal;HPM_P1;HPM_P2
2024/02/10 00:01:45;;;;;;;30.10;15.30;;;;;;;3.61;94.84;98417.50;677028;1260;140026;-83
2024/02/10 00:16:53;;;;;;;27.10;14.40;;;;;;;3.56;95.00;98420.91;675986;1260;140103;-82
2024/02/10 00:32:00;;;;;;;26.70;14.40;;;;;;;3.49;95.49;98418.17;676890;1261;139374;-80
2024/02/10 00:47:09;;;;;;;34.70;14.80;;;;;;;3.45;95.66;98402.48;675098;1274;139432;-83
2024/02/10 01:02:20;;;;;;;23.20;11.30;;;;;;;3.52;96.36;98389.67;673172;1262;139317;-79
2024/02/10 01:17:26;;;;;;;32.00;14.20;;;;;;;3.66;96.12;98384.55;679969;1264;138979;-79
2024/02/10 01:32:30;;;;;;;23.50;10.40;;;;;;;3.70;95.64;98374.36;681459;1264;139799;-78
2024/02/10 01:47:36;;;;;;;29.10;12.80;;;;;;;3.75;95.36;98354.58;677736;1264;139889;-80
2024/02/10 02:02:41;;;;;;;29.30;11.70;;;;;;;3.57;96.67;98352.35;680644;1260;139135;-80
2024/02/10 02:17:44;;;;;;;25.60;11.90;;;;;;;3.71;96.43;98345.44;681250;1264;140516;-80
2024/02/10 02:32:49;;;;;;;36.20;14.40;;;;;;;3.73;96.12;98340.24;680067;1265;139000;-80
2024/02/10 02:48:01;;;;;;;28.40;11.70;;;;;;;3.78;96.60;98347.00;681709;1275;140049;-83
2024/02/10 03:03:06;;;;;;;27.90;12.10;;;;;;;3.84;96.64;98340.73;678117;1264;141995;-82
2024/02/10 03:18:10;;;;;;;25.80;11.60;;;;;;;3.85;96.70;98350.90;679182;1263;139769;-81
2024/02/10 03:33:14;;;;;;;16.50;8.60;;;;;;;3.84;96.62;98354.61;681315;1263;138850;-80
2024/02/10 03:48:18;;;;;;;19.90;9.40;;;;;;;3.91;96.58;98361.06;679529;1275;139194;-81
2024/02/10 04:03:28;;;;;;;26.80;12.00;;;;;;;3.88;96.68;98365.30;678980;1262;140358;-80
2024/02/10 04:18:33;;;;;;;24.00;13.50;;;;;;;3.97;96.39;98366.21;681566;1262;140321;-80
2024/02/10 04:33:37;;;;;;;63.60;19.40;;;;;;;4.06;96.26;98369.38;680449;1263;139812;-81
2024/02/10 04:48:41;;;;;;;30.90;11.30;;;;;;;4.04;95.99;98357.84;678986;1264;140604;-78
2024/02/10 05:03:44;;;;;;;46.10;15.70;;;;;;;4.09;96.04;98358.23;680998;1263;139159;-81
2024/02/10 05:18:49;;;;;;;24.40;9.90;;;;;;;4.09;96.42;98361.30;681082;1261;140099;-80
2024/02/10 05:33:53;;;;;;;24.30;9.60;;;;;;;4.08;96.81;98365.20;680919;1261;139855;-80
2024/02/10 05:48:57;;;;;;;22.40;8.30;;;;;;;4.21;96.30;98364.38;677714;1275;140759;-81
2024/02/10 06:04:00;;;;;;;30.50;12.10;;;;;;;4.29;95.83;98367.17;676834;1260;139695;-81
2024/02/10 06:19:05;;;;;;;181.20;64.90;;;;;;;4.30;95.80;98382.61;680677;1262;139794;-80
2024/02/10 06:34:10;;;;;;;120.40;45.20;;;;;;;4.33;96.36;98377.88;679786;1261;139965;-81
2024/02/10 06:49:20;;;;;;;189.70;71.10;;;;;;;4.36;95.96;98378.79;677527;1262;139345;-80
2024/02/10 07:04:24;;;;;;;76.50;30.30;;;;;;;4.34;95.99;98382.46;681104;1264;187472;-80
2024/02/10 07:19:31;;;;;;;55.30;21.60;;;;;;;4.48;96.37;98380.48;678700;1275;139751;-80
2024/02/10 07:34:35;;;;;;;251.10;76.40;;;;;;;4.56;96.51;98383.00;678034;1264;140173;-80
2024/02/10 07:49:42;;;;;;;148.90;49.50;;;;;;;4.64;96.46;98380.16;676919;1262;139684;-82
2024/02/10 08:04:45;;;;;;;484.90;120.70;;;;;;;4.78;95.30;98375.09;679175;1264;140291;-81
2024/02/10 08:19:51;;;;;;;241.70;77.00;;;;;;;4.88;94.91;98386.43;678930;1261;139934;-81
2024/02/10 08:35:00;;;;;;;187.70;58.40;;;;;;;4.94;95.80;98383.59;677852;1269;140305;-81
2024/02/10 08:50:08;;;;;;;146.40;59.30;;;;;;;4.97;96.07;98394.05;678269;1264;140098;-81
2024/02/10 09:05:12;;;;;;;104.00;33.40;;;;;;;5.22;96.40;98408.50;676213;1265;139940;-82
2024/02/10 09:20:17;;;;;;;136.70;52.90;;;;;;;5.30;96.09;98425.65;677763;1262;140450;-81
2024/02/10 09:35:23;;;;;;;372.50;136.40;;;;;;;5.59;95.35;98443.48;676858;1264;140173;-81
2024/02/10 09:50:36;;;;;;;143.30;43.00;;;;;;;5.62;95.03;98468.84;680334;1262;140212;-80
2024/02/10 10:05:43;;;;;;;318.30;76.10;;;;;;;5.76;95.20;98486.74;677357;1266;139472;-83
2024/02/10 10:20:51;;;;;;;713.30;340.20;;;;;;;5.78;94.51;98480.97;676802;1264;139493;-82
2024/02/10 10:35:55;;;;;;;156.80;49.50;;;;;;;5.87;94.62;98480.17;676385;1264;140623;-84
2024/02/10 10:51:02;;;;;;;158.80;46.20;;;;;;;5.81;94.83;98475.38;678382;1262;139173;-80
2024/02/10 11:06:11;;;;;;;112.20;33.90;;;;;;;5.94;95.22;98472.56;680746;1276;139108;-81
2024/02/10 11:21:21;;;;;;;137.60;49.00;;;;;;;5.84;94.77;98477.19;681281;1264;139759;-80
2024/02/10 11:36:28;;;;;;;258.70;104.20;;;;;;;6.16;95.34;98489.71;681785;1264;140995;-79
2024/02/10 11:51:34;;;;;;;164.10;50.70;;;;;;;5.98;94.78;98498.54;679742;1260;140109;-82
2024/02/10 12:06:38;;;;;;;104.10;36.10;;;;;;;6.07;94.86;98489.21;677365;1265;139707;-80
2024/02/10 12:21:42;;;;;;;296.30;105.60;;;;;;;6.07;95.06;98497.13;679842;1262;140137;-81
2024/02/10 12:36:46;;;;;;;371.50;113.50;;;;;;;6.07;94.71;98510.04;681593;1264;139890;-80
2024/02/10 12:51:54;;;;;;;135.20;47.00;;;;;;;6.17;94.42;98506.42;679638;1266;139797;-81
2024/02/10 13:06:59;;;;;;;270.90;87.00;;;;;;;6.15;95.07;98500.19;678509;1265;139025;-81
2024/02/10 13:22:05;;;;;;;180.30;62.80;;;;;;;6.05;95.45;98497.53;679710;1264;139666;-82
2024/02/10 14:22:55;;;;;;;139.70;50.10;;;;;;;6.34;95.54;98491.54;680417;1267;139524;-81
2024/02/10 14:38:18;;;;;;;140.10;61.50;;;;;;;6.09;95.70;98500.30;680371;1267;139238;-82
2024/02/10 14:53:30;;;;;;;96.30;35.30;;;;;;;5.99;95.54;98511.28;676111;1264;140048;-83
2024/02/10 15:08:37;;;;;;;171.50;55.50;;;;;;;5.88;95.92;98500.87;677769;1263;138974;-81
2024/02/10 15:23:43;;;;;;;173.10;49.20;;;;;;;5.80;95.89;98506.86;677905;1264;139859;-82
2024/02/10 15:38:47;;;;;;;147.40;45.30;;;;;;;5.76;95.86;98515.88;674897;1263;139329;-81
2024/02/10 15:53:50;;;;;;;146.10;45.40;;;;;;;5.77;96.21;98523.09;677978;1264;140555;-82
2024/02/10 16:08:58;;;;;;;186.20;70.60;;;;;;;5.75;96.55;98535.27;680116;1260;140083;-81
2024/02/10 16:24:05;;;;;;;151.70;50.40;;;;;;;5.72;97.03;98556.72;675556;1264;139526;-81
2024/02/10 16:39:09;;;;;;;;;;;;;;;5.70;97.13;98579.83;675678;1260;139028;-81
2024/02/10 16:54:13;;;;;;;99.50;34.80;;;;;;;5.58;98.05;98582.66;678296;1264;127123;-82
2024/02/10 17:09:17;;;;;;;135.70;51.20;;;;;;;5.62;97.30;98579.36;679609;1261;140307;-81
2024/02/10 17:24:22;;;;;;;235.20;90.80;;;;;;;5.61;97.91;98596.45;676406;1264;139397;-81
2024/02/10 17:39:28;;;;;;;94.40;35.30;;;;;;;5.64;97.32;98594.75;675028;1263;139177;-82
2024/02/10 17:54:32;;;;;;;100.50;37.40;;;;;;;5.65;97.78;98602.09;676731;1264;140367;-80
2024/02/10 18:09:37;;;;;;;125.80;46.00;;;;;;;5.70;97.56;98620.88;677946;1263;139792;-81
2024/02/10 18:24:44;;;;;;;121.70;38.50;;;;;;;5.70;97.90;98622.08;676072;1262;139865;-81
2024/02/10 18:39:48;;;;;;;202.90;62.00;;;;;;;5.76;97.92;98620.32;677947;1260;139132;-83
2024/02/10 18:54:51;;;;;;;143.50;52.60;;;;;;;5.83;97.87;98603.91;678125;1261;139471;-82
2024/02/10 19:09:56;;;;;;;143.70;46.60;;;;;;;5.90;97.70;98595.04;678651;1264;198676;-82
2024/02/10 19:25:06;;;;;;;114.80;38.80;;;;;;;5.88;98.27;98609.52;681276;1261;139279;-83
2024/02/10 19:40:10;;;;;;;121.50;42.30;;;;;;;5.81;98.07;98615.67;678863;1260;139332;-82
2024/02/10 19:55:19;;;;;;;124.90;43.30;;;;;;;5.90;98.21;98634.11;680456;1264;139478;-81
2024/02/10 20:10:23;;;;;;;93.80;31.10;;;;;;;6.02;98.69;98648.12;678871;1264;139928;-81
2024/02/10 20:25:27;;;;;;;90.40;29.70;;;;;;;5.99;98.66;98663.45;677497;1264;139045;-81
2024/02/10 20:40:32;;;;;;;92.70;34.10;;;;;;;5.97;98.05;98671.66;680430;1264;139481;-81
2024/02/10 20:55:42;;;;;;;637.90;186.30;;;;;;;5.95;98.66;98668.89;678064;1264;139142;-81
2024/02/10 21:10:47;;;;;;;109.70;36.70;;;;;;;6.01;98.69;98678.61;677169;1263;139864;-81
2024/02/10 21:25:53;;;;;;;91.50;32.80;;;;;;;6.10;98.83;98667.13;678158;1262;139625;-81
2024/02/10 21:41:14;;;;;;;66.10;24.10;;;;;;;6.08;98.82;98673.45;681603;1263;139864;-81
2024/02/10 21:56:41;;;;;;;71.30;25.80;;;;;;;6.03;99.24;98671.48;677250;1264;140379;-80
2024/02/10 22:11:47;;;;;;;65.90;24.00;;;;;;;6.12;99.55;98663.30;678386;1276;140991;-81
2024/02/10 22:26:52;;;;;;;69.40;25.90;;;;;;;6.07;98.80;98662.74;680118;1278;139229;-81
2024/02/10 22:41:55;;;;;;;61.10;24.30;;;;;;;6.03;99.27;98642.48;679341;1263;140205;-82
2024/02/10 22:56:59;;;;;;;80.90;28.70;;;;;;;5.96;99.41;98626.94;677020;1263;139566;-80
2024/02/10 23:12:05;;;;;;;63.60;24.40;;;;;;;5.96;99.29;98625.56;675560;1264;139017;-80
2024/02/10 23:27:09;;;;;;;60.90;21.60;;;;;;;5.92;99.61;98616.95;674414;1264;139680;-81
2024/02/10 23:42:12;;;;;;;58.80;20.90;;;;;;;6.00;99.76;98601.31;675016;1264;139647;-81
2024/02/10 23:57:17;;;;;;;57.40;21.90;;;;;;;5.97;99.85;98582.64;675308;1262;139800;-80
